createdAt,value
2023-05-25T00:00:12.656Z,16.46
2023-05-25T00:03:01.426Z,16.42
2023-05-25T00:05:30.081Z,16.35
2023-05-25T00:07:58.259Z,16.31
2023-05-25T00:10:26.548Z,16.31
2023-05-25T00:12:57.277Z,16.31
2023-05-25T00:15:25.873Z,16.27
2023-05-25T00:17:54.932Z,16.21
2023-05-25T00:20:23.913Z,16.15
2023-05-25T00:22:52.672Z,16.15
2023-05-25T00:25:21.247Z,16.14
2023-05-25T00:27:50.168Z,16.14
2023-05-25T00:30:18.484Z,16.16
2023-05-25T00:32:47.981Z,16.20
2023-05-25T00:35:16.525Z,16.21
2023-05-25T00:37:45.326Z,16.26
2023-05-25T00:40:16.829Z,16.30
2023-05-25T00:42:45.691Z,16.32
2023-05-25T00:45:14.191Z,16.37
2023-05-25T00:47:44.898Z,16.39
2023-05-25T00:50:17.319Z,16.42
2023-05-25T00:52:45.909Z,16.49
2023-05-25T00:55:19.023Z,16.56
2023-05-25T00:57:52.154Z,16.62
2023-05-25T01:00:21.463Z,16.68
2023-05-25T01:02:53.394Z,16.70
2023-05-25T01:05:29.353Z,16.73
2023-05-25T01:08:02.176Z,16.73
2023-05-25T01:10:33.703Z,16.72
2023-05-25T01:13:04.905Z,16.72
2023-05-25T01:15:33.601Z,16.63
2023-05-25T01:18:02.108Z,16.47
2023-05-25T01:20:30.805Z,16.31
2023-05-25T01:23:05.850Z,16.20
2023-05-25T01:25:40.316Z,16.11
2023-05-25T01:28:25.907Z,16.13
2023-05-25T01:30:56.827Z,16.20
2023-05-25T01:33:26.416Z,16.27
2023-05-25T01:35:54.842Z,16.23
2023-05-25T01:38:23.227Z,16.13
2023-05-25T01:40:51.529Z,16.13
2023-05-25T01:43:20.530Z,16.15
2023-05-25T01:45:49.349Z,16.15
2023-05-25T01:48:41.099Z,16.15
2023-05-25T01:51:21.648Z,16.19
2023-05-25T01:53:58.430Z,16.25
2023-05-25T01:56:29.387Z,16.31
2023-05-25T01:59:01.745Z,16.37
2023-05-25T02:01:31.996Z,16.35
2023-05-25T02:04:01.275Z,16.33
2023-05-25T02:06:30.003Z,16.29
2023-05-25T02:09:01.985Z,16.26
2023-05-25T02:11:30.421Z,16.27
2023-05-25T02:13:58.712Z,16.27
2023-05-25T02:16:27.661Z,16.31
2023-05-25T02:18:58.271Z,16.31
2023-05-25T02:21:26.968Z,16.27
2023-05-25T02:23:55.324Z,16.16
2023-05-25T02:26:24.111Z,16.03
2023-05-25T02:28:53.017Z,15.91
2023-05-25T02:31:21.687Z,15.81
2023-05-25T02:33:49.876Z,15.76
2023-05-25T02:36:21.353Z,15.72
2023-05-25T02:38:52.425Z,15.71
2023-05-25T02:41:21.570Z,15.71
2023-05-25T02:43:50.878Z,15.74
2023-05-25T02:46:20.438Z,15.82
2023-05-25T02:48:50.736Z,15.91
2023-05-25T02:51:19.351Z,15.96
2023-05-25T02:53:48.443Z,15.99
2023-05-25T02:56:16.797Z,16.02
2023-05-25T02:58:45.110Z,16.07
2023-05-25T03:01:20.890Z,16.12
2023-05-25T03:03:53.104Z,16.16
2023-05-25T03:06:23.161Z,16.23
2023-05-25T03:08:55.811Z,16.31
2023-05-25T03:11:24.306Z,16.34
2023-05-25T03:13:52.751Z,16.36
2023-05-25T03:16:23.378Z,16.34
2023-05-25T03:18:52.235Z,16.30
2023-05-25T03:21:22.655Z,16.28
2023-05-25T03:23:51.562Z,16.30
2023-05-25T03:26:20.616Z,16.38
2023-05-25T03:28:50.941Z,16.41
2023-05-25T03:31:24.241Z,16.44
2023-05-25T03:33:56.212Z,16.47
2023-05-25T03:36:28.419Z,16.50
2023-05-25T03:38:57.311Z,16.55
2023-05-25T03:41:25.884Z,16.55
2023-05-25T03:43:54.197Z,16.58
2023-05-25T03:46:23.118Z,16.63
2023-05-25T03:48:52.064Z,16.65
2023-05-25T03:51:20.612Z,16.66
2023-05-25T03:53:51.487Z,16.65
2023-05-25T03:56:19.626Z,16.64
2023-05-25T03:58:48.063Z,16.64
2023-05-25T04:01:16.955Z,16.61
2023-05-25T04:03:45.575Z,16.64
2023-05-25T04:06:13.920Z,16.66
2023-05-25T04:08:42.892Z,16.64
2023-05-25T04:11:11.662Z,16.58
2023-05-25T04:13:40.680Z,16.52
2023-05-25T04:16:12.632Z,16.50
2023-05-25T04:18:41.928Z,16.50
2023-05-25T04:21:10.582Z,16.46
2023-05-25T04:23:38.982Z,16.41
2023-05-25T04:26:10.626Z,16.35
2023-05-25T04:28:42.015Z,16.29
2023-05-25T04:31:31.303Z,16.31
2023-05-25T04:34:23.677Z,16.33
2023-05-25T04:37:05.828Z,16.37
2023-05-25T04:39:35.061Z,16.43
2023-05-25T04:42:04.982Z,16.47
2023-05-25T04:44:36.308Z,16.52
2023-05-25T04:47:08.177Z,16.59
2023-05-25T04:49:38.554Z,16.69
2023-05-25T04:52:09.923Z,16.79
2023-05-25T04:54:39.504Z,16.85
2023-05-25T04:57:09.855Z,16.87
2023-05-25T04:59:38.239Z,16.94
2023-05-25T05:02:06.598Z,17.03
2023-05-25T05:04:35.137Z,17.08
2023-05-25T05:07:03.782Z,17.13
2023-05-25T05:09:32.670Z,17.16
2023-05-25T05:12:03.486Z,17.15
2023-05-25T05:14:37.117Z,17.14
2023-05-25T05:17:05.791Z,17.13
2023-05-25T05:19:34.537Z,17.13
2023-05-25T05:22:04.216Z,17.14
2023-05-25T05:24:32.720Z,17.13
2023-05-25T05:27:04.618Z,17.11
2023-05-25T05:29:45.238Z,17.15
2023-05-25T05:32:14.543Z,17.18
2023-05-25T05:34:42.939Z,17.22
2023-05-25T05:37:22.463Z,17.24
2023-05-25T05:39:53.551Z,17.29
2023-05-25T05:42:22.606Z,17.35
2023-05-25T05:44:50.930Z,17.38
2023-05-25T05:47:19.411Z,17.45
2023-05-25T05:49:47.704Z,17.50
2023-05-25T05:52:16.139Z,17.55
2023-05-25T05:54:44.427Z,17.61
2023-05-25T05:57:15.012Z,17.68
2023-05-25T05:59:43.562Z,17.78
2023-05-25T06:02:12.275Z,17.89
2023-05-25T06:04:40.725Z,17.97
2023-05-25T06:07:09.640Z,18.02
2023-05-25T06:09:38.110Z,18.04
2023-05-25T06:12:07.164Z,18.10
2023-05-25T06:14:38.877Z,18.17
2023-05-25T06:17:07.880Z,18.24
2023-05-25T06:19:39.018Z,18.34
2023-05-25T06:22:07.912Z,18.45
2023-05-25T06:24:36.501Z,18.53
2023-05-25T06:27:05.089Z,18.60
2023-05-25T06:29:34.376Z,18.68
2023-05-25T06:32:02.800Z,18.72
2023-05-25T06:34:35.442Z,18.79
2023-05-25T06:37:06.062Z,18.88
2023-05-25T06:39:34.421Z,18.97
2023-05-25T06:42:03.518Z,19.02
2023-05-25T06:44:34.937Z,19.09
2023-05-25T06:47:04.893Z,19.18
2023-05-25T06:49:33.671Z,19.27
2023-05-25T06:52:02.144Z,19.40
2023-05-25T06:54:31.245Z,19.51
2023-05-25T06:56:59.774Z,19.60
2023-05-25T06:59:28.233Z,19.74
2023-05-25T07:02:00.526Z,19.92
2023-05-25T07:04:28.885Z,20.11
2023-05-25T07:06:57.257Z,20.32
2023-05-25T07:09:25.436Z,20.55
2023-05-25T07:11:53.746Z,20.80
2023-05-25T07:14:22.003Z,21.00
2023-05-25T07:16:50.303Z,21.20
2023-05-25T07:19:21.537Z,21.42
2023-05-25T07:21:50.022Z,21.70
2023-05-25T07:24:19.243Z,21.93
2023-05-25T07:26:48.632Z,22.13
2023-05-25T07:29:17.534Z,22.31
2023-05-25T07:31:46.577Z,22.47
2023-05-25T07:34:15.698Z,22.58
2023-05-25T07:36:44.016Z,22.67
2023-05-25T07:39:12.404Z,22.78
2023-05-25T07:41:40.994Z,22.89
2023-05-25T07:44:09.372Z,22.99
2023-05-25T07:46:37.787Z,23.14
2023-05-25T07:49:10.744Z,23.33
2023-05-25T07:51:39.651Z,23.48
2023-05-25T07:54:07.866Z,23.64
2023-05-25T07:56:36.410Z,23.79
2023-05-25T07:59:05.004Z,23.96
2023-05-25T08:01:33.525Z,24.15
2023-05-25T08:04:01.943Z,24.32
2023-05-25T08:06:30.753Z,24.43
2023-05-25T08:08:59.047Z,24.53
2023-05-25T08:11:27.944Z,24.58
2023-05-25T08:13:56.222Z,24.56
2023-05-25T08:16:24.467Z,24.58
2023-05-25T08:18:53.100Z,24.66
2023-05-25T08:21:24.692Z,24.73
2023-05-25T08:23:54.204Z,24.76
2023-05-25T08:28:55.439Z,24.63
2023-05-25T08:31:23.864Z,24.72
2023-05-25T08:33:52.023Z,24.76
2023-05-25T08:36:20.719Z,24.76
2023-05-25T08:38:48.966Z,24.71
2023-05-25T08:41:17.504Z,24.71
2023-05-25T08:43:46.253Z,24.72
2023-05-25T08:46:15.257Z,24.74
2023-05-25T08:48:46.028Z,24.82
2023-05-25T08:51:17.853Z,24.98
2023-05-25T08:53:46.922Z,25.09
2023-05-25T08:56:20.780Z,25.21
2023-05-25T08:59:15.281Z,25.27
2023-05-25T09:01:46.738Z,25.39
2023-05-25T09:04:15.046Z,25.61
2023-05-25T09:06:57.299Z,25.82
2023-05-25T09:09:37.327Z,26.01
2023-05-25T09:12:06.736Z,26.26
2023-05-25T09:14:35.355Z,26.60
2023-05-25T09:17:04.100Z,27.03
2023-05-25T09:19:32.393Z,27.49
2023-05-25T09:22:15.032Z,27.92
2023-05-25T09:24:46.150Z,28.39
2023-05-25T09:27:19.694Z,28.61
2023-05-25T09:29:50.160Z,28.69
2023-05-25T09:32:19.844Z,28.72
2023-05-25T09:34:48.350Z,28.78
2023-05-25T09:37:19.621Z,29.09
2023-05-25T09:39:48.422Z,29.41
2023-05-25T09:42:18.120Z,29.67
2023-05-25T09:44:46.958Z,29.99
2023-05-25T09:47:17.285Z,30.28
2023-05-25T09:49:47.836Z,30.49
2023-05-25T09:52:16.597Z,30.76
2023-05-25T09:54:47.521Z,31.07
2023-05-25T09:57:17.103Z,31.35
2023-05-25T09:59:46.130Z,31.50
2023-05-25T10:02:15.743Z,31.55
2023-05-25T10:04:44.099Z,31.73
2023-05-25T10:07:16.246Z,31.91
2023-05-25T10:09:46.538Z,32.22
2023-05-25T10:12:19.886Z,32.74
2023-05-25T10:14:51.042Z,33.39
2023-05-25T10:17:23.670Z,34.01
2023-05-25T10:20:00.176Z,34.39
2023-05-25T10:22:48.388Z,34.63
2023-05-25T10:25:19.710Z,34.69
2023-05-25T10:28:03.391Z,34.79
2023-05-25T10:30:33.190Z,34.71
2023-05-25T10:33:03.440Z,34.61
2023-05-25T10:35:42.376Z,34.95
2023-05-25T10:38:21.563Z,35.33
2023-05-25T10:40:52.136Z,35.40
2023-05-25T10:43:21.884Z,35.66
2023-05-25T10:45:50.203Z,35.76
2023-05-25T10:48:18.791Z,35.66
2023-05-25T10:50:58.453Z,35.72
2023-05-25T10:53:27.022Z,36.02
2023-05-25T10:55:55.505Z,36.35
2023-05-25T10:58:23.857Z,36.42
2023-05-25T11:01:09.926Z,36.16
2023-05-25T11:03:44.296Z,36.15
2023-05-25T11:06:17.717Z,36.38
2023-05-25T11:09:00.034Z,37.04
2023-05-25T11:11:43.635Z,37.00
2023-05-25T11:14:30.697Z,36.69
2023-05-25T11:17:14.068Z,36.51
2023-05-25T11:19:51.413Z,36.22
2023-05-25T11:22:21.586Z,35.16
2023-05-25T11:24:52.117Z,34.26
2023-05-25T11:27:24.922Z,33.72
2023-05-25T11:29:55.189Z,33.01
2023-05-25T11:32:24.428Z,32.45
2023-05-25T11:34:54.240Z,32.06
2023-05-25T11:37:29.015Z,31.77
2023-05-25T11:39:57.277Z,31.39
2023-05-25T11:42:28.018Z,30.93
2023-05-25T11:45:02.858Z,30.52
2023-05-25T11:47:33.132Z,30.04
2023-05-25T11:50:04.141Z,29.84
2023-05-25T11:52:34.268Z,29.56
2023-05-25T11:55:14.537Z,29.34
2023-05-25T11:57:43.231Z,29.22
2023-05-25T12:00:12.504Z,29.21
2023-05-25T12:02:44.554Z,29.20
2023-05-25T12:05:12.875Z,29.35
2023-05-25T12:07:46.994Z,29.56
2023-05-25T12:10:16.709Z,29.78
2023-05-25T12:12:46.886Z,29.97
2023-05-25T12:15:20.521Z,30.42
2023-05-25T12:17:50.924Z,31.13
2023-05-25T12:20:22.633Z,32.29
2023-05-25T12:22:51.382Z,33.55
2023-05-25T12:25:24.974Z,34.68
2023-05-25T12:28:15.208Z,35.61
2023-05-25T12:30:43.636Z,36.64
2023-05-25T12:33:14.974Z,37.37
2023-05-25T12:35:50.618Z,37.74
2023-05-25T12:38:24.158Z,38.43
2023-05-25T12:41:18.940Z,39.18
2023-05-25T12:43:47.323Z,39.50
2023-05-25T12:46:24.868Z,40.07
2023-05-25T12:48:53.759Z,40.59
2023-05-25T12:51:21.996Z,40.99
2023-05-25T12:53:51.558Z,41.68
2023-05-25T12:56:19.826Z,42.26
2023-05-25T12:58:48.164Z,42.14
2023-05-25T13:01:16.760Z,41.75
2023-05-25T13:03:45.046Z,40.71
2023-05-25T13:06:13.279Z,39.65
2023-05-25T13:08:41.430Z,39.73
2023-05-25T13:11:10.004Z,40.27
2023-05-25T13:13:38.478Z,40.75
2023-05-25T13:16:07.731Z,40.90
2023-05-25T13:18:47.983Z,41.35
2023-05-25T13:21:18.562Z,41.72
2023-05-25T13:23:46.987Z,41.94
2023-05-25T13:26:15.953Z,41.58
2023-05-25T13:28:44.692Z,41.20
2023-05-25T13:31:13.263Z,41.31
2023-05-25T13:33:41.736Z,41.23
2023-05-25T13:36:10.019Z,40.85
2023-05-25T13:38:38.472Z,40.76
2023-05-25T13:41:07.189Z,40.41
2023-05-25T13:43:35.574Z,39.41
2023-05-25T13:46:04.266Z,38.52
2023-05-25T13:48:33.196Z,38.00
2023-05-25T13:51:03.600Z,37.28
2023-05-25T13:53:32.089Z,36.95
2023-05-25T13:56:00.767Z,36.13
2023-05-25T13:58:28.943Z,35.21
2023-05-25T14:00:57.473Z,34.56
2023-05-25T14:03:25.907Z,33.90
2023-05-25T14:05:54.408Z,33.25
2023-05-25T14:08:22.892Z,32.65
2023-05-25T14:10:51.510Z,31.94
2023-05-25T14:13:19.876Z,31.37
2023-05-25T14:15:57.074Z,30.87
2023-05-25T14:18:28.246Z,30.57
2023-05-25T14:20:56.485Z,30.38
2023-05-25T14:23:24.967Z,30.06
2023-05-25T14:25:53.352Z,29.78
2023-05-25T14:28:21.982Z,29.59
2023-05-25T14:30:51.765Z,29.54
2023-05-25T14:33:20.044Z,29.60
2023-05-25T14:35:48.433Z,29.62
2023-05-25T14:38:16.613Z,29.60
2023-05-25T14:40:45.200Z,29.64
2023-05-25T14:43:13.796Z,29.97
2023-05-25T14:45:42.397Z,30.19
2023-05-25T14:48:16.482Z,30.46
2023-05-25T14:50:45.812Z,31.13
2023-05-25T14:53:14.081Z,31.50
2023-05-25T14:55:43.254Z,31.58
2023-05-25T14:58:12.192Z,31.82
2023-05-25T15:00:40.396Z,32.24
2023-05-25T15:03:08.805Z,32.69
2023-05-25T15:05:37.588Z,33.01
2023-05-25T15:08:05.913Z,33.10
2023-05-25T15:10:34.197Z,32.86
2023-05-25T15:13:02.685Z,32.66
2023-05-25T15:15:30.965Z,32.57
2023-05-25T15:17:59.404Z,32.49
2023-05-25T15:20:27.994Z,32.43
2023-05-25T15:22:56.541Z,32.77
2023-05-25T15:27:59.966Z,34.01
2023-05-25T15:30:28.674Z,34.68
2023-05-25T15:32:57.394Z,35.24
2023-05-25T15:35:31.246Z,35.73
2023-05-25T15:38:00.586Z,35.63
2023-05-25T15:40:28.767Z,35.06
2023-05-25T15:43:14.715Z,34.45
2023-05-25T15:45:47.388Z,33.73
2023-05-25T15:48:16.837Z,33.22
2023-05-25T15:50:45.614Z,32.67
2023-05-25T15:53:14.507Z,32.09
2023-05-25T15:55:43.097Z,31.41
2023-05-25T15:58:11.723Z,30.72
2023-05-25T16:00:40.270Z,30.07
2023-05-25T16:03:08.641Z,29.56
2023-05-25T16:05:36.920Z,29.09
2023-05-25T16:08:05.135Z,28.72
2023-05-25T16:10:33.599Z,28.43
2023-05-25T16:13:01.893Z,28.10
2023-05-25T16:15:30.101Z,27.73
2023-05-25T16:17:58.291Z,27.43
2023-05-25T16:20:26.665Z,27.10
2023-05-25T16:22:55.353Z,26.74
2023-05-25T16:25:23.691Z,26.43
2023-05-25T16:27:55.474Z,26.09
2023-05-25T16:30:24.267Z,25.80
2023-05-25T16:32:55.356Z,25.57
2023-05-25T16:35:24.592Z,25.41
2023-05-25T16:37:53.354Z,25.18
2023-05-25T16:40:21.791Z,24.94
2023-05-25T16:42:50.718Z,24.73
2023-05-25T16:45:21.018Z,24.57
2023-05-25T16:47:49.941Z,24.47
2023-05-25T16:50:18.919Z,24.40
2023-05-25T16:52:47.272Z,24.28
2023-05-25T16:55:16.561Z,24.12
2023-05-25T16:57:44.843Z,23.93
2023-05-25T17:00:14.233Z,23.77
2023-05-25T17:02:42.591Z,23.67
2023-05-25T17:05:11.374Z,23.52
2023-05-25T17:07:40.583Z,23.36
2023-05-25T17:10:09.254Z,23.27
2023-05-25T17:12:37.401Z,23.26
2023-05-25T17:15:06.592Z,23.26
2023-05-25T17:17:34.808Z,23.16
2023-05-25T17:20:04.344Z,23.06
2023-05-25T17:22:32.606Z,22.96
2023-05-25T17:25:01.416Z,22.88
2023-05-25T17:27:29.965Z,22.84
2023-05-25T17:30:00.740Z,22.86
2023-05-25T17:32:29.620Z,22.82
2023-05-25T17:34:57.911Z,22.76
2023-05-25T17:37:26.196Z,22.68
2023-05-25T17:39:54.474Z,22.63
2023-05-25T17:42:22.864Z,22.62
2023-05-25T17:44:51.585Z,22.51
2023-05-25T17:47:19.941Z,22.29
2023-05-25T17:49:48.235Z,22.12
2023-05-25T17:52:16.654Z,21.91
2023-05-25T17:54:44.891Z,21.65
2023-05-25T17:57:13.427Z,21.53
2023-05-25T17:59:44.136Z,21.47
2023-05-25T18:02:14.440Z,21.43
2023-05-25T18:04:42.831Z,21.48
2023-05-25T18:07:13.672Z,21.48
2023-05-25T18:09:42.170Z,21.45
2023-05-25T18:12:10.904Z,21.44
2023-05-25T18:14:39.053Z,21.38
2023-05-25T18:17:07.748Z,21.26
2023-05-25T18:19:36.817Z,21.14
2023-05-25T18:22:05.546Z,21.00
2023-05-25T18:24:33.916Z,20.85
2023-05-25T18:27:05.150Z,20.76
2023-05-25T18:29:33.905Z,20.73
2023-05-25T18:32:02.538Z,20.77
2023-05-25T18:34:31.159Z,20.85
2023-05-25T18:36:59.577Z,20.85
2023-05-25T18:39:27.998Z,20.74
2023-05-25T18:41:56.328Z,20.68
2023-05-25T18:44:25.193Z,20.62
2023-05-25T18:46:55.773Z,20.60
2023-05-25T18:49:24.699Z,20.59
2023-05-25T18:51:52.937Z,20.54
2023-05-25T18:54:21.363Z,20.49
2023-05-25T18:56:49.643Z,20.37
2023-05-25T18:59:17.925Z,20.22
2023-05-25T19:01:46.505Z,20.12
2023-05-25T19:04:15.126Z,20.06
2023-05-25T19:06:43.506Z,19.97
2023-05-25T19:09:11.979Z,19.88
2023-05-25T19:11:40.271Z,19.79
2023-05-25T19:14:08.705Z,19.73
2023-05-25T19:16:37.301Z,19.70
2023-05-25T19:19:06.129Z,19.74
2023-05-25T19:21:34.313Z,19.80
2023-05-25T19:24:02.434Z,19.88
2023-05-25T19:26:31.245Z,19.95
2023-05-25T19:29:00.076Z,20.01
2023-05-25T19:31:30.051Z,20.06
2023-05-25T19:33:58.584Z,20.10
2023-05-25T19:36:27.383Z,20.12
2023-05-25T19:38:55.993Z,20.09
2023-05-25T19:41:24.562Z,20.01
2023-05-25T19:43:53.149Z,20.01
2023-05-25T19:46:21.981Z,20.04
2023-05-25T19:48:51.051Z,20.01
2023-05-25T19:51:19.772Z,19.98
2023-05-25T19:53:49.241Z,19.95
2023-05-25T19:56:17.966Z,19.93
2023-05-25T19:58:46.428Z,19.90
2023-05-25T20:01:14.781Z,19.88
2023-05-25T20:03:44.720Z,19.86
2023-05-25T20:06:13.322Z,19.83
2023-05-25T20:08:41.597Z,19.78
2023-05-25T20:11:10.023Z,19.74
2023-05-25T20:13:38.568Z,19.67
2023-05-25T20:16:10.264Z,19.61
2023-05-25T20:18:39.054Z,19.57
2023-05-25T20:21:07.410Z,19.55
2023-05-25T20:23:35.688Z,19.45
2023-05-25T20:26:04.487Z,19.36
2023-05-25T20:28:33.088Z,19.29
2023-05-25T20:31:01.657Z,19.23
2023-05-25T20:33:30.247Z,19.18
2023-05-25T20:35:58.423Z,19.11
2023-05-25T20:38:26.913Z,19.04
2023-05-25T20:40:55.194Z,18.98
2023-05-25T20:43:23.683Z,18.94
2023-05-25T20:45:52.209Z,18.92
2023-05-25T20:48:21.015Z,18.92
2023-05-25T20:50:49.253Z,18.87
2023-05-25T20:53:19.576Z,18.84
2023-05-25T20:55:48.268Z,18.84
2023-05-25T20:58:16.570Z,18.85
2023-05-25T21:00:46.677Z,18.82
2023-05-25T21:03:15.038Z,18.77
2023-05-25T21:05:43.525Z,18.71
2023-05-25T21:08:12.285Z,18.56
2023-05-25T21:10:40.984Z,18.42
2023-05-25T21:13:09.320Z,18.36
2023-05-25T21:15:37.738Z,18.32
2023-05-25T21:18:07.233Z,18.25
2023-05-25T21:20:36.509Z,18.14
2023-05-25T21:23:04.899Z,18.08
2023-05-25T21:25:33.492Z,18.03
2023-05-25T21:28:01.973Z,17.98
2023-05-25T21:30:31.675Z,17.96
2023-05-25T21:33:00.272Z,17.98
2023-05-25T21:35:30.919Z,18.03
2023-05-25T21:37:59.196Z,18.03
2023-05-25T21:40:27.529Z,17.98
2023-05-25T21:42:56.175Z,17.91
2023-05-25T21:45:24.892Z,17.88
2023-05-25T21:47:53.294Z,17.88
2023-05-25T21:50:21.937Z,17.89
2023-05-25T21:52:50.430Z,17.93
2023-05-25T21:55:18.708Z,17.95
2023-05-25T21:57:47.087Z,17.95
2023-05-25T22:00:16.438Z,17.93
2023-05-25T22:02:44.875Z,17.93
2023-05-25T22:05:13.503Z,17.94
2023-05-25T22:07:42.161Z,17.94
2023-05-25T22:10:10.967Z,17.90
2023-05-25T22:12:39.162Z,17.79
2023-05-25T22:15:08.647Z,17.66
2023-05-25T22:17:36.978Z,17.54
2023-05-25T22:20:08.305Z,17.47
2023-05-25T22:22:37.622Z,17.39
2023-05-25T22:25:06.363Z,17.29
2023-05-25T22:27:35.000Z,17.26
2023-05-25T22:30:04.673Z,17.28
2023-05-25T22:32:33.525Z,17.31
2023-05-25T22:35:02.252Z,17.33
2023-05-25T22:37:30.763Z,17.31
2023-05-25T22:39:59.080Z,17.29
2023-05-25T22:42:27.661Z,17.28
2023-05-25T22:44:56.747Z,17.24
2023-05-25T22:47:25.378Z,17.21
2023-05-25T22:49:53.922Z,17.17
2023-05-25T22:52:22.113Z,17.12
2023-05-25T22:54:50.485Z,17.04
2023-05-25T22:57:18.959Z,16.94
2023-05-25T22:59:47.039Z,16.90
2023-05-25T23:02:15.685Z,16.92
2023-05-25T23:04:44.211Z,16.90
2023-05-25T23:07:12.424Z,16.89
2023-05-25T23:09:40.783Z,16.85
2023-05-25T23:12:08.872Z,16.86
2023-05-25T23:14:37.324Z,16.88
2023-05-25T23:17:05.837Z,16.90
2023-05-25T23:19:34.024Z,16.94
2023-05-25T23:22:02.497Z,16.90
2023-05-25T23:24:31.292Z,16.88
2023-05-25T23:26:59.672Z,16.93
2023-05-25T23:29:28.882Z,16.97
2023-05-25T23:31:57.379Z,16.97
2023-05-25T23:34:25.712Z,16.95
2023-05-25T23:36:58.338Z,16.92
2023-05-25T23:39:27.025Z,16.87
2023-05-25T23:41:55.319Z,16.81
2023-05-25T23:44:23.795Z,16.81
2023-05-25T23:46:52.378Z,16.80
2023-05-25T23:49:21.074Z,16.70
2023-05-25T23:51:49.351Z,16.67
2023-05-25T23:54:17.642Z,16.65
2023-05-25T23:56:45.981Z,16.65
2023-05-25T23:59:15.428Z,16.67
